sensor_id;sensor_type;location;lat;lon;timestamp;temperature;humidity
66140;DHT22;52945;51.908;8.364;2023-05-31T00:01:11;17.40;59.10
66140;DHT22;52945;51.908;8.364;2023-05-31T00:04:12;17.40;58.90
66140;DHT22;52945;51.908;8.364;2023-05-31T00:07:12;17.40;59.00
66140;DHT22;52945;51.908;8.364;2023-05-31T00:10:13;17.40;59.00
66140;DHT22;52945;51.908;8.364;2023-05-31T00:13:14;17.40;59.30
66140;DHT22;52945;51.908;8.364;2023-05-31T00:16:14;17.30;59.30
66140;DHT22;52945;51.908;8.364;2023-05-31T00:19:15;17.30;59.20
66140;DHT22;52945;51.908;8.364;2023-05-31T00:22:15;17.30;59.20
66140;DHT22;52945;51.908;8.364;2023-05-31T00:25:17;17.30;59.20
66140;DHT22;52945;51.908;8.364;2023-05-31T00:28:17;17.30;59.20
66140;DHT22;52945;51.908;8.364;2023-05-31T00:31:18;17.20;59.50
66140;DHT22;52945;51.908;8.364;2023-05-31T00:34:19;17.20;59.50
66140;DHT22;52945;51.908;8.364;2023-05-31T00:37:20;17.20;59.60
66140;DHT22;52945;51.908;8.364;2023-05-31T00:40:20;17.20;59.80
66140;DHT22;52945;51.908;8.364;2023-05-31T00:43:21;17.10;60.00
66140;DHT22;52945;51.908;8.364;2023-05-31T00:46:30;17.10;60.00
66140;DHT22;52945;51.908;8.364;2023-05-31T00:49:31;17.10;60.00
66140;DHT22;52945;51.908;8.364;2023-05-31T00:52:32;17.10;59.80
66140;DHT22;52945;51.908;8.364;2023-05-31T00:55:34;17.10;60.10
66140;DHT22;52945;51.908;8.364;2023-05-31T00:58:36;17.00;60.30
66140;DHT22;52945;51.908;8.364;2023-05-31T01:01:37;16.90;60.50
66140;DHT22;52945;51.908;8.364;2023-05-31T01:04:38;16.90;60.40
66140;DHT22;52945;51.908;8.364;2023-05-31T01:07:39;16.90;60.30
66140;DHT22;52945;51.908;8.364;2023-05-31T01:10:40;16.90;60.30
66140;DHT22;52945;51.908;8.364;2023-05-31T01:13:58;16.90;60.20
66140;DHT22;52945;51.908;8.364;2023-05-31T01:17:14;16.90;60.20
66140;DHT22;52945;51.908;8.364;2023-05-31T01:20:20;16.90;60.20
66140;DHT22;52945;51.908;8.364;2023-05-31T01:23:41;16.90;60.10
66140;DHT22;52945;51.908;8.364;2023-05-31T01:26:49;16.80;60.60
66140;DHT22;52945;51.908;8.364;2023-05-31T01:29:50;16.80;60.40
66140;DHT22;52945;51.908;8.364;2023-05-31T01:32:54;16.80;60.60
66140;DHT22;52945;51.908;8.364;2023-05-31T01:35:56;16.70;60.90
66140;DHT22;52945;51.908;8.364;2023-05-31T01:38:57;16.70;60.70
66140;DHT22;52945;51.908;8.364;2023-05-31T01:41:57;16.70;60.80
66140;DHT22;52945;51.908;8.364;2023-05-31T01:44:58;16.70;60.80
66140;DHT22;52945;51.908;8.364;2023-05-31T01:48:00;16.60;60.80
66140;DHT22;52945;51.908;8.364;2023-05-31T01:51:02;16.60;61.00
66140;DHT22;52945;51.908;8.364;2023-05-31T01:54:04;16.60;61.00
66140;DHT22;52945;51.908;8.364;2023-05-31T01:57:06;16.50;61.40
66140;DHT22;52945;51.908;8.364;2023-05-31T02:00:08;16.60;61.40
66140;DHT22;52945;51.908;8.364;2023-05-31T02:03:12;16.50;61.20
66140;DHT22;52945;51.908;8.364;2023-05-31T02:06:12;16.50;61.30
66140;DHT22;52945;51.908;8.364;2023-05-31T02:09:13;16.50;61.30
66140;DHT22;52945;51.908;8.364;2023-05-31T02:12:14;16.50;61.20
66140;DHT22;52945;51.908;8.364;2023-05-31T02:15:15;16.50;61.20
66140;DHT22;52945;51.908;8.364;2023-05-31T02:18:15;16.50;61.20
66140;DHT22;52945;51.908;8.364;2023-05-31T02:21:19;16.50;61.00
66140;DHT22;52945;51.908;8.364;2023-05-31T02:24:19;16.50;60.90
66140;DHT22;52945;51.908;8.364;2023-05-31T02:27:20;16.50;61.00
66140;DHT22;52945;51.908;8.364;2023-05-31T02:30:21;16.50;61.10
66140;DHT22;52945;51.908;8.364;2023-05-31T02:33:21;16.50;61.10
66140;DHT22;52945;51.908;8.364;2023-05-31T02:36:22;16.40;61.20
66140;DHT22;52945;51.908;8.364;2023-05-31T02:39:24;16.40;61.20
66140;DHT22;52945;51.908;8.364;2023-05-31T02:42:25;16.40;61.10
66140;DHT22;52945;51.908;8.364;2023-05-31T02:45:25;16.40;61.00
66140;DHT22;52945;51.908;8.364;2023-05-31T02:48:26;16.30;61.20
66140;DHT22;52945;51.908;8.364;2023-05-31T02:51:27;16.30;61.30
66140;DHT22;52945;51.908;8.364;2023-05-31T02:54:27;16.30;61.30
66140;DHT22;52945;51.908;8.364;2023-05-31T02:57:28;16.20;61.10
66140;DHT22;52945;51.908;8.364;2023-05-31T03:00:28;16.30;61.00
66140;DHT22;52945;51.908;8.364;2023-05-31T03:03:29;16.20;61.40
66140;DHT22;52945;51.908;8.364;2023-05-31T03:06:30;16.20;61.30
66140;DHT22;52945;51.908;8.364;2023-05-31T03:09:31;16.20;61.50
66140;DHT22;52945;51.908;8.364;2023-05-31T03:12:32;16.20;61.50
66140;DHT22;52945;51.908;8.364;2023-05-31T03:15:33;16.10;61.40
66140;DHT22;52945;51.908;8.364;2023-05-31T03:18:36;16.20;61.30
66140;DHT22;52945;51.908;8.364;2023-05-31T03:21:36;16.20;61.40
66140;DHT22;52945;51.908;8.364;2023-05-31T03:24:37;16.10;61.40
66140;DHT22;52945;51.908;8.364;2023-05-31T03:27:37;16.20;61.30
66140;DHT22;52945;51.908;8.364;2023-05-31T03:30:38;16.10;61.30
66140;DHT22;52945;51.908;8.364;2023-05-31T03:33:39;16.10;61.50
66140;DHT22;52945;51.908;8.364;2023-05-31T03:36:39;16.10;61.40
66140;DHT22;52945;51.908;8.364;2023-05-31T03:39:40;16.10;61.50
66140;DHT22;52945;51.908;8.364;2023-05-31T03:42:40;16.10;61.70
66140;DHT22;52945;51.908;8.364;2023-05-31T03:45:41;16.10;61.40
66140;DHT22;52945;51.908;8.364;2023-05-31T03:48:41;16.10;61.70
66140;DHT22;52945;51.908;8.364;2023-05-31T03:51:42;16.10;61.70
66140;DHT22;52945;51.908;8.364;2023-05-31T03:54:43;16.10;61.70
66140;DHT22;52945;51.908;8.364;2023-05-31T03:57:43;16.10;61.70
66140;DHT22;52945;51.908;8.364;2023-05-31T04:00:44;16.00;62.00
66140;DHT22;52945;51.908;8.364;2023-05-31T04:03:45;16.00;61.90
66140;DHT22;52945;51.908;8.364;2023-05-31T04:06:45;16.00;61.90
66140;DHT22;52945;51.908;8.364;2023-05-31T04:09:46;16.00;62.10
66140;DHT22;52945;51.908;8.364;2023-05-31T04:12:47;15.90;62.30
66140;DHT22;52945;51.908;8.364;2023-05-31T04:15:47;16.00;62.40
66140;DHT22;52945;51.908;8.364;2023-05-31T04:18:48;16.00;62.30
66140;DHT22;52945;51.908;8.364;2023-05-31T04:21:48;16.00;62.20
66140;DHT22;52945;51.908;8.364;2023-05-31T04:24:49;16.10;62.20
66140;DHT22;52945;51.908;8.364;2023-05-31T04:27:50;16.00;62.40
66140;DHT22;52945;51.908;8.364;2023-05-31T04:30:50;16.00;62.50
66140;DHT22;52945;51.908;8.364;2023-05-31T04:33:52;16.10;62.60
66140;DHT22;52945;51.908;8.364;2023-05-31T04:36:57;16.00;62.70
66140;DHT22;52945;51.908;8.364;2023-05-31T04:39:58;16.00;62.70
66140;DHT22;52945;51.908;8.364;2023-05-31T04:43:00;16.00;62.60
66140;DHT22;52945;51.908;8.364;2023-05-31T04:46:03;16.00;62.90
66140;DHT22;52945;51.908;8.364;2023-05-31T04:49:04;16.00;62.60
66140;DHT22;52945;51.908;8.364;2023-05-31T04:52:05;16.00;62.70
66140;DHT22;52945;51.908;8.364;2023-05-31T04:55:07;16.00;63.10
66140;DHT22;52945;51.908;8.364;2023-05-31T04:58:10;16.00;63.20
66140;DHT22;52945;51.908;8.364;2023-05-31T05:01:11;16.00;63.00
66140;DHT22;52945;51.908;8.364;2023-05-31T05:04:15;16.10;63.00
66140;DHT22;52945;51.908;8.364;2023-05-31T05:07:16;16.10;63.00
66140;DHT22;52945;51.908;8.364;2023-05-31T05:10:17;16.10;63.10
66140;DHT22;52945;51.908;8.364;2023-05-31T05:13:17;16.10;63.20
66140;DHT22;52945;51.908;8.364;2023-05-31T05:16:18;16.20;63.10
66140;DHT22;52945;51.908;8.364;2023-05-31T05:19:19;16.20;63.10
66140;DHT22;52945;51.908;8.364;2023-05-31T05:22:20;16.20;62.90
66140;DHT22;52945;51.908;8.364;2023-05-31T05:25:23;16.20;63.00
66140;DHT22;52945;51.908;8.364;2023-05-31T05:28:23;16.30;63.00
66140;DHT22;52945;51.908;8.364;2023-05-31T05:31:24;16.30;63.00
66140;DHT22;52945;51.908;8.364;2023-05-31T05:34:25;16.30;62.70
66140;DHT22;52945;51.908;8.364;2023-05-31T05:37:25;16.30;62.70
66140;DHT22;52945;51.908;8.364;2023-05-31T05:40:26;16.40;62.70
66140;DHT22;52945;51.908;8.364;2023-05-31T05:43:26;16.40;62.60
66140;DHT22;52945;51.908;8.364;2023-05-31T05:46:29;16.50;62.40
66140;DHT22;52945;51.908;8.364;2023-05-31T05:49:30;16.50;62.40
66140;DHT22;52945;51.908;8.364;2023-05-31T05:52:30;16.50;62.40
66140;DHT22;52945;51.908;8.364;2023-05-31T05:55:33;16.60;62.30
66140;DHT22;52945;51.908;8.364;2023-05-31T05:58:33;16.60;62.20
66140;DHT22;52945;51.908;8.364;2023-05-31T06:01:34;16.70;62.00
66140;DHT22;52945;51.908;8.364;2023-05-31T06:04:36;16.80;62.00
66140;DHT22;52945;51.908;8.364;2023-05-31T06:07:36;16.80;61.70
66140;DHT22;52945;51.908;8.364;2023-05-31T06:10:37;16.70;61.60
66140;DHT22;52945;51.908;8.364;2023-05-31T06:13:38;16.80;61.40
66140;DHT22;52945;51.908;8.364;2023-05-31T06:16:38;16.90;61.40
66140;DHT22;52945;51.908;8.364;2023-05-31T06:19:39;17.00;61.00
66140;DHT22;52945;51.908;8.364;2023-05-31T06:22:39;17.00;61.00
66140;DHT22;52945;51.908;8.364;2023-05-31T06:25:40;17.10;61.00
66140;DHT22;52945;51.908;8.364;2023-05-31T06:28:41;17.10;60.80
66140;DHT22;52945;51.908;8.364;2023-05-31T06:31:42;17.20;60.80
66140;DHT22;52945;51.908;8.364;2023-05-31T06:34:42;17.20;60.60
66140;DHT22;52945;51.908;8.364;2023-05-31T06:37:43;17.30;60.60
66140;DHT22;52945;51.908;8.364;2023-05-31T06:40:44;17.30;60.60
66140;DHT22;52945;51.908;8.364;2023-05-31T06:43:45;17.30;60.70
66140;DHT22;52945;51.908;8.364;2023-05-31T06:46:46;17.40;60.60
66140;DHT22;52945;51.908;8.364;2023-05-31T06:49:46;17.50;60.00
66140;DHT22;52945;51.908;8.364;2023-05-31T06:52:47;17.60;60.10
66140;DHT22;52945;51.908;8.364;2023-05-31T06:55:47;17.60;60.20
66140;DHT22;52945;51.908;8.364;2023-05-31T06:58:48;17.60;60.20
66140;DHT22;52945;51.908;8.364;2023-05-31T07:01:49;17.70;60.00
66140;DHT22;52945;51.908;8.364;2023-05-31T07:04:52;17.80;59.90
66140;DHT22;52945;51.908;8.364;2023-05-31T07:07:53;17.80;59.70
66140;DHT22;52945;51.908;8.364;2023-05-31T07:10:53;17.90;59.50
66140;DHT22;52945;51.908;8.364;2023-05-31T07:13:54;17.90;59.50
66140;DHT22;52945;51.908;8.364;2023-05-31T07:16:55;18.10;59.30
66140;DHT22;52945;51.908;8.364;2023-05-31T07:19:55;18.20;58.90
66140;DHT22;52945;51.908;8.364;2023-05-31T07:22:57;18.30;58.60
66140;DHT22;52945;51.908;8.364;2023-05-31T07:25:57;18.30;58.70
66140;DHT22;52945;51.908;8.364;2023-05-31T07:29:00;18.40;58.30
66140;DHT22;52945;51.908;8.364;2023-05-31T07:32:00;18.50;58.00
66140;DHT22;52945;51.908;8.364;2023-05-31T07:35:02;18.60;57.40
66140;DHT22;52945;51.908;8.364;2023-05-31T07:38:02;18.60;57.40
66140;DHT22;52945;51.908;8.364;2023-05-31T07:41:03;18.70;57.10
66140;DHT22;52945;51.908;8.364;2023-05-31T07:44:04;18.80;56.90
66140;DHT22;52945;51.908;8.364;2023-05-31T07:47:05;18.90;56.90
66140;DHT22;52945;51.908;8.364;2023-05-31T07:50:06;18.90;56.70
66140;DHT22;52945;51.908;8.364;2023-05-31T07:53:07;19.00;55.30
66140;DHT22;52945;51.908;8.364;2023-05-31T07:56:07;19.10;54.60
66140;DHT22;52945;51.908;8.364;2023-05-31T07:59:08;19.20;54.60
66140;DHT22;52945;51.908;8.364;2023-05-31T08:02:09;19.30;50.80
66140;DHT22;52945;51.908;8.364;2023-05-31T08:05:09;19.40;50.70
66140;DHT22;52945;51.908;8.364;2023-05-31T08:08:10;19.40;51.90
66140;DHT22;52945;51.908;8.364;2023-05-31T08:11:10;19.60;52.40
66140;DHT22;52945;51.908;8.364;2023-05-31T08:14:11;19.70;52.10
66140;DHT22;52945;51.908;8.364;2023-05-31T08:17:12;19.70;51.80
66140;DHT22;52945;51.908;8.364;2023-05-31T08:20:13;19.80;51.70
66140;DHT22;52945;51.908;8.364;2023-05-31T08:23:20;19.90;51.90
66140;DHT22;52945;51.908;8.364;2023-05-31T08:26:21;20.10;50.30
66140;DHT22;52945;51.908;8.364;2023-05-31T08:29:22;20.20;49.40
66140;DHT22;52945;51.908;8.364;2023-05-31T08:32:22;20.30;49.10
66140;DHT22;52945;51.908;8.364;2023-05-31T08:35:23;20.50;49.30
66140;DHT22;52945;51.908;8.364;2023-05-31T08:38:24;20.50;49.00
66140;DHT22;52945;51.908;8.364;2023-05-31T08:41:24;20.60;48.80
66140;DHT22;52945;51.908;8.364;2023-05-31T08:44:28;20.70;49.30
66140;DHT22;52945;51.908;8.364;2023-05-31T08:47:38;20.80;48.70
66140;DHT22;52945;51.908;8.364;2023-05-31T08:50:40;20.90;49.10
66140;DHT22;52945;51.908;8.364;2023-05-31T08:53:43;21.00;49.20
66140;DHT22;52945;51.908;8.364;2023-05-31T08:56:45;21.10;48.20
66140;DHT22;52945;51.908;8.364;2023-05-31T08:59:46;21.20;48.20
66140;DHT22;52945;51.908;8.364;2023-05-31T09:02:48;21.40;47.30
66140;DHT22;52945;51.908;8.364;2023-05-31T09:05:51;21.60;47.10
66140;DHT22;52945;51.908;8.364;2023-05-31T09:08:51;21.70;46.00
66140;DHT22;52945;51.908;8.364;2023-05-31T09:11:52;21.90;46.10
66140;DHT22;52945;51.908;8.364;2023-05-31T09:14:53;22.20;43.70
66140;DHT22;52945;51.908;8.364;2023-05-31T09:17:55;22.30;43.00
66140;DHT22;52945;51.908;8.364;2023-05-31T09:20:57;22.60;43.30
66140;DHT22;52945;51.908;8.364;2023-05-31T09:24:07;22.70;42.20
66140;DHT22;52945;51.908;8.364;2023-05-31T09:27:08;23.00;41.40
66140;DHT22;52945;51.908;8.364;2023-05-31T09:30:11;23.20;40.60
66140;DHT22;52945;51.908;8.364;2023-05-31T09:33:15;23.40;41.00
66140;DHT22;52945;51.908;8.364;2023-05-31T09:36:24;23.40;38.40
66140;DHT22;52945;51.908;8.364;2023-05-31T09:39:25;23.80;37.60
66140;DHT22;52945;51.908;8.364;2023-05-31T09:42:26;24.30;36.70
66140;DHT22;52945;51.908;8.364;2023-05-31T09:45:27;24.70;36.20
66140;DHT22;52945;51.908;8.364;2023-05-31T09:48:30;25.00;34.70
66140;DHT22;52945;51.908;8.364;2023-05-31T09:51:32;25.20;35.10
66140;DHT22;52945;51.908;8.364;2023-05-31T09:54:37;25.40;35.20
66140;DHT22;52945;51.908;8.364;2023-05-31T09:57:39;25.70;34.70
66140;DHT22;52945;51.908;8.364;2023-05-31T10:00:44;25.90;33.70
66140;DHT22;52945;51.908;8.364;2023-05-31T10:03:48;26.00;33.90
66140;DHT22;52945;51.908;8.364;2023-05-31T10:06:49;25.80;33.40
66140;DHT22;52945;51.908;8.364;2023-05-31T10:09:51;25.90;34.50
66140;DHT22;52945;51.908;8.364;2023-05-31T10:12:57;26.00;33.90
66140;DHT22;52945;51.908;8.364;2023-05-31T10:16:08;26.00;33.60
66140;DHT22;52945;51.908;8.364;2023-05-31T10:19:11;26.00;33.00
66140;DHT22;52945;51.908;8.364;2023-05-31T10:22:14;25.70;33.30
66140;DHT22;52945;51.908;8.364;2023-05-31T10:28:27;25.20;33.60
66140;DHT22;52945;51.908;8.364;2023-05-31T10:31:31;25.60;34.90
66140;DHT22;52945;51.908;8.364;2023-05-31T10:34:36;25.90;34.90
66140;DHT22;52945;51.908;8.364;2023-05-31T10:37:38;26.30;34.10
66140;DHT22;52945;51.908;8.364;2023-05-31T10:40:48;26.60;33.90
66140;DHT22;52945;51.908;8.364;2023-05-31T10:43:57;26.80;33.80
66140;DHT22;52945;51.908;8.364;2023-05-31T10:47:01;27.10;33.20
66140;DHT22;52945;51.908;8.364;2023-05-31T10:50:03;27.30;33.20
66140;DHT22;52945;51.908;8.364;2023-05-31T10:53:10;27.40;32.80
66140;DHT22;52945;51.908;8.364;2023-05-31T10:56:14;27.60;32.90
66140;DHT22;52945;51.908;8.364;2023-05-31T10:59:17;27.70;32.20
66140;DHT22;52945;51.908;8.364;2023-05-31T11:02:18;27.30;31.80
66140;DHT22;52945;51.908;8.364;2023-05-31T11:05:23;27.30;32.40
66140;DHT22;52945;51.908;8.364;2023-05-31T11:08:28;27.30;32.80
66140;DHT22;52945;51.908;8.364;2023-05-31T11:14:33;27.40;33.50
66140;DHT22;52945;51.908;8.364;2023-05-31T11:17:50;27.20;33.10
66140;DHT22;52945;51.908;8.364;2023-05-31T11:20:51;27.30;33.30
66140;DHT22;52945;51.908;8.364;2023-05-31T11:23:55;27.60;33.30
66140;DHT22;52945;51.908;8.364;2023-05-31T11:26:59;27.70;33.40
66140;DHT22;52945;51.908;8.364;2023-05-31T11:30:00;27.90;33.50
66140;DHT22;52945;51.908;8.364;2023-05-31T11:33:01;28.10;33.10
66140;DHT22;52945;51.908;8.364;2023-05-31T11:36:02;28.10;32.30
66140;DHT22;52945;51.908;8.364;2023-05-31T11:39:04;28.20;33.00
66140;DHT22;52945;51.908;8.364;2023-05-31T11:42:06;28.20;31.90
66140;DHT22;52945;51.908;8.364;2023-05-31T11:45:12;28.40;31.90
66140;DHT22;52945;51.908;8.364;2023-05-31T11:48:42;28.60;32.50
66140;DHT22;52945;51.908;8.364;2023-05-31T11:51:46;28.80;32.10
66140;DHT22;52945;51.908;8.364;2023-05-31T11:54:48;29.00;31.50
66140;DHT22;52945;51.908;8.364;2023-05-31T11:57:49;29.10;31.60
66140;DHT22;52945;51.908;8.364;2023-05-31T12:00:57;29.10;31.50
66140;DHT22;52945;51.908;8.364;2023-05-31T12:03:59;29.20;31.80
66140;DHT22;52945;51.908;8.364;2023-05-31T12:07:00;29.10;31.70
66140;DHT22;52945;51.908;8.364;2023-05-31T12:10:00;29.20;31.70
66140;DHT22;52945;51.908;8.364;2023-05-31T12:13:05;29.40;31.50
66140;DHT22;52945;51.908;8.364;2023-05-31T12:16:05;29.40;30.30
66140;DHT22;52945;51.908;8.364;2023-05-31T12:19:11;29.50;31.40
66140;DHT22;52945;51.908;8.364;2023-05-31T12:22:12;29.50;31.40
66140;DHT22;52945;51.908;8.364;2023-05-31T12:25:12;29.70;30.90
66140;DHT22;52945;51.908;8.364;2023-05-31T12:28:17;29.70;31.10
66140;DHT22;52945;51.908;8.364;2023-05-31T12:31:22;29.50;30.80
66140;DHT22;52945;51.908;8.364;2023-05-31T12:34:23;29.20;31.00
66140;DHT22;52945;51.908;8.364;2023-05-31T12:37:26;29.00;30.60
66140;DHT22;52945;51.908;8.364;2023-05-31T12:40:26;29.10;31.40
66140;DHT22;52945;51.908;8.364;2023-05-31T12:43:28;29.30;31.30
66140;DHT22;52945;51.908;8.364;2023-05-31T12:46:38;29.50;30.50
66140;DHT22;52945;51.908;8.364;2023-05-31T12:49:38;29.60;31.00
66140;DHT22;52945;51.908;8.364;2023-05-31T12:52:41;29.40;30.30
66140;DHT22;52945;51.908;8.364;2023-05-31T12:55:42;29.20;30.20
66140;DHT22;52945;51.908;8.364;2023-05-31T12:58:42;29.20;30.50
66140;DHT22;52945;51.908;8.364;2023-05-31T13:01:43;29.20;30.70
66140;DHT22;52945;51.908;8.364;2023-05-31T13:04:44;29.40;30.50
66140;DHT22;52945;51.908;8.364;2023-05-31T13:07:44;29.40;30.80
66140;DHT22;52945;51.908;8.364;2023-05-31T13:10:47;29.60;31.50
66140;DHT22;52945;51.908;8.364;2023-05-31T13:13:48;29.50;30.70
66140;DHT22;52945;51.908;8.364;2023-05-31T13:16:48;29.30;30.40
66140;DHT22;52945;51.908;8.364;2023-05-31T13:19:49;29.50;30.40
66140;DHT22;52945;51.908;8.364;2023-05-31T13:22:50;29.60;30.50
66140;DHT22;52945;51.908;8.364;2023-05-31T13:25:51;29.70;29.80
66140;DHT22;52945;51.908;8.364;2023-05-31T13:28:51;29.50;29.90
66140;DHT22;52945;51.908;8.364;2023-05-31T13:31:52;29.30;30.90
66140;DHT22;52945;51.908;8.364;2023-05-31T13:34:53;29.30;31.00
66140;DHT22;52945;51.908;8.364;2023-05-31T13:37:53;29.40;31.60
66140;DHT22;52945;51.908;8.364;2023-05-31T13:40:54;29.50;31.00
66140;DHT22;52945;51.908;8.364;2023-05-31T13:43:55;29.60;31.30
66140;DHT22;52945;51.908;8.364;2023-05-31T13:46:55;29.60;30.60
66140;DHT22;52945;51.908;8.364;2023-05-31T13:49:56;29.60;30.50
66140;DHT22;52945;51.908;8.364;2023-05-31T13:52:56;29.70;30.80
66140;DHT22;52945;51.908;8.364;2023-05-31T13:55:58;29.20;30.50
66140;DHT22;52945;51.908;8.364;2023-05-31T13:58:58;29.10;30.90
66140;DHT22;52945;51.908;8.364;2023-05-31T14:01:59;29.10;31.50
66140;DHT22;52945;51.908;8.364;2023-05-31T14:05:00;29.20;31.20
66140;DHT22;52945;51.908;8.364;2023-05-31T14:08:03;28.90;30.20
66140;DHT22;52945;51.908;8.364;2023-05-31T14:11:04;28.70;31.70
66140;DHT22;52945;51.908;8.364;2023-05-31T14:14:04;28.60;31.00
66140;DHT22;52945;51.908;8.364;2023-05-31T14:17:05;28.20;30.60
66140;DHT22;52945;51.908;8.364;2023-05-31T14:20:06;28.10;32.20
66140;DHT22;52945;51.908;8.364;2023-05-31T14:23:07;28.30;31.80
66140;DHT22;52945;51.908;8.364;2023-05-31T14:26:08;28.60;31.50
66140;DHT22;52945;51.908;8.364;2023-05-31T14:29:08;28.70;31.30
66140;DHT22;52945;51.908;8.364;2023-05-31T14:32:09;28.80;30.70
66140;DHT22;52945;51.908;8.364;2023-05-31T14:35:13;28.90;31.50
66140;DHT22;52945;51.908;8.364;2023-05-31T14:38:13;28.80;30.50
66140;DHT22;52945;51.908;8.364;2023-05-31T14:41:14;28.80;30.40
66140;DHT22;52945;51.908;8.364;2023-05-31T14:44:14;28.60;30.90
66140;DHT22;52945;51.908;8.364;2023-05-31T14:47:15;28.80;31.40
66140;DHT22;52945;51.908;8.364;2023-05-31T14:50:15;29.00;30.90
66140;DHT22;52945;51.908;8.364;2023-05-31T14:53:16;28.90;30.10
66140;DHT22;52945;51.908;8.364;2023-05-31T14:56:17;28.90;29.20
66140;DHT22;52945;51.908;8.364;2023-05-31T14:59:17;29.10;29.90
66140;DHT22;52945;51.908;8.364;2023-05-31T15:02:18;29.00;29.80
66140;DHT22;52945;51.908;8.364;2023-05-31T15:05:19;29.00;30.30
66140;DHT22;52945;51.908;8.364;2023-05-31T15:08:20;28.60;30.60
66140;DHT22;52945;51.908;8.364;2023-05-31T15:11:21;28.60;30.70
66140;DHT22;52945;51.908;8.364;2023-05-31T15:14:21;28.70;31.20
66140;DHT22;52945;51.908;8.364;2023-05-31T15:17:22;28.70;30.50
66140;DHT22;52945;51.908;8.364;2023-05-31T15:20:22;28.80;31.50
66140;DHT22;52945;51.908;8.364;2023-05-31T15:23:23;28.90;31.60
66140;DHT22;52945;51.908;8.364;2023-05-31T15:26:23;29.00;31.20
66140;DHT22;52945;51.908;8.364;2023-05-31T15:29:24;29.20;31.10
66140;DHT22;52945;51.908;8.364;2023-05-31T15:32:26;29.20;30.90
66140;DHT22;52945;51.908;8.364;2023-05-31T15:35:26;29.20;30.40
66140;DHT22;52945;51.908;8.364;2023-05-31T15:38:27;29.20;30.80
66140;DHT22;52945;51.908;8.364;2023-05-31T15:41:29;29.20;30.70
66140;DHT22;52945;51.908;8.364;2023-05-31T15:44:30;29.20;31.20
66140;DHT22;52945;51.908;8.364;2023-05-31T15:47:31;29.30;31.20
66140;DHT22;52945;51.908;8.364;2023-05-31T15:50:31;29.40;30.80
66140;DHT22;52945;51.908;8.364;2023-05-31T15:53:32;29.40;31.20
66140;DHT22;52945;51.908;8.364;2023-05-31T15:56:33;29.60;31.20
66140;DHT22;52945;51.908;8.364;2023-05-31T15:59:33;29.80;30.90
66140;DHT22;52945;51.908;8.364;2023-05-31T16:02:35;29.90;30.90
66140;DHT22;52945;51.908;8.364;2023-05-31T16:05:36;30.00;29.90
66140;DHT22;52945;51.908;8.364;2023-05-31T16:08:36;29.70;29.60
66140;DHT22;52945;51.908;8.364;2023-05-31T16:11:37;29.80;29.90
66140;DHT22;52945;51.908;8.364;2023-05-31T16:14:37;29.90;30.00
66140;DHT22;52945;51.908;8.364;2023-05-31T16:17:38;30.00;29.80
66140;DHT22;52945;51.908;8.364;2023-05-31T16:20:39;30.10;28.90
66140;DHT22;52945;51.908;8.364;2023-05-31T16:23:42;30.20;29.10
66140;DHT22;52945;51.908;8.364;2023-05-31T16:30:40;30.00;28.60
66140;DHT22;52945;51.908;8.364;2023-05-31T16:33:40;30.10;29.30
66140;DHT22;52945;51.908;8.364;2023-05-31T16:36:41;30.10;29.10
66140;DHT22;52945;51.908;8.364;2023-05-31T16:39:41;30.10;28.80
66140;DHT22;52945;51.908;8.364;2023-05-31T16:42:42;30.00;29.00
66140;DHT22;52945;51.908;8.364;2023-05-31T16:45:43;29.90;29.30
66140;DHT22;52945;51.908;8.364;2023-05-31T16:48:43;29.60;30.10
66140;DHT22;52945;51.908;8.364;2023-05-31T16:51:44;29.60;30.50
66140;DHT22;52945;51.908;8.364;2023-05-31T16:54:45;29.50;30.00
66140;DHT22;52945;51.908;8.364;2023-05-31T16:57:45;29.50;30.10
66140;DHT22;52945;51.908;8.364;2023-05-31T17:00:46;29.40;30.50
66140;DHT22;52945;51.908;8.364;2023-05-31T17:03:46;29.20;30.70
66140;DHT22;52945;51.908;8.364;2023-05-31T17:06:48;29.10;30.90
66140;DHT22;52945;51.908;8.364;2023-05-31T17:09:48;29.10;31.20
66140;DHT22;52945;51.908;8.364;2023-05-31T17:12:49;28.90;31.50
66140;DHT22;52945;51.908;8.364;2023-05-31T17:15:51;28.80;31.50
66140;DHT22;52945;51.908;8.364;2023-05-31T17:18:51;28.60;32.00
66140;DHT22;52945;51.908;8.364;2023-05-31T17:21:52;28.50;32.20
66140;DHT22;52945;51.908;8.364;2023-05-31T17:24:53;28.50;32.00
66140;DHT22;52945;51.908;8.364;2023-05-31T17:27:54;28.40;32.00
66140;DHT22;52945;51.908;8.364;2023-05-31T17:30:54;28.10;31.60
66140;DHT22;52945;51.908;8.364;2023-05-31T17:33:55;28.10;32.20
66140;DHT22;52945;51.908;8.364;2023-05-31T17:36:57;27.90;31.70
66140;DHT22;52945;51.908;8.364;2023-05-31T17:39:58;27.70;31.50
66140;DHT22;52945;51.908;8.364;2023-05-31T17:42:58;27.60;32.00
66140;DHT22;52945;51.908;8.364;2023-05-31T17:45:59;27.40;32.60
66140;DHT22;52945;51.908;8.364;2023-05-31T17:48:59;27.50;32.90
66140;DHT22;52945;51.908;8.364;2023-05-31T17:52:00;27.40;32.90
66140;DHT22;52945;51.908;8.364;2023-05-31T17:55:04;27.20;33.00
66140;DHT22;52945;51.908;8.364;2023-05-31T17:58:05;27.20;33.30
66140;DHT22;52945;51.908;8.364;2023-05-31T18:01:05;27.20;33.40
66140;DHT22;52945;51.908;8.364;2023-05-31T18:04:06;27.10;33.20
66140;DHT22;52945;51.908;8.364;2023-05-31T18:07:10;26.90;33.00
66140;DHT22;52945;51.908;8.364;2023-05-31T18:10:11;26.80;33.20
66140;DHT22;52945;51.908;8.364;2023-05-31T18:13:11;26.70;33.50
66140;DHT22;52945;51.908;8.364;2023-05-31T18:16:12;26.50;34.00
66140;DHT22;52945;51.908;8.364;2023-05-31T18:19:12;26.70;34.20
66140;DHT22;52945;51.908;8.364;2023-05-31T18:22:13;26.70;34.40
66140;DHT22;52945;51.908;8.364;2023-05-31T18:25:14;26.70;34.70
66140;DHT22;52945;51.908;8.364;2023-05-31T18:28:14;26.80;34.70
66140;DHT22;52945;51.908;8.364;2023-05-31T18:31:15;26.70;34.80
66140;DHT22;52945;51.908;8.364;2023-05-31T18:34:16;26.80;35.00
66140;DHT22;52945;51.908;8.364;2023-05-31T18:37:16;26.70;35.20
66140;DHT22;52945;51.908;8.364;2023-05-31T18:40:18;26.70;35.30
66140;DHT22;52945;51.908;8.364;2023-05-31T18:43:20;26.60;35.50
66140;DHT22;52945;51.908;8.364;2023-05-31T18:46:24;26.60;35.60
66140;DHT22;52945;51.908;8.364;2023-05-31T18:49:24;26.60;35.90
66140;DHT22;52945;51.908;8.364;2023-05-31T18:52:25;26.50;36.00
66140;DHT22;52945;51.908;8.364;2023-05-31T18:55:26;26.40;36.30
66140;DHT22;52945;51.908;8.364;2023-05-31T18:58:28;26.20;36.80
66140;DHT22;52945;51.908;8.364;2023-05-31T19:01:29;26.20;37.30
66140;DHT22;52945;51.908;8.364;2023-05-31T19:04:30;26.00;38.30
66140;DHT22;52945;51.908;8.364;2023-05-31T19:07:31;26.00;38.90
66140;DHT22;52945;51.908;8.364;2023-05-31T19:10:32;25.80;39.50
66140;DHT22;52945;51.908;8.364;2023-05-31T19:13:33;25.80;39.90
66140;DHT22;52945;51.908;8.364;2023-05-31T19:16:33;25.70;40.10